sensor_id;sensor_type;location;lat;lon;timestamp;P1;durP1;ratioP1;P2;durP2;ratioP2
43363;SDS011;40636;52.424;-1.948;2022-12-22T00:00:59;10.57;;;6.05;;
43363;SDS011;40636;52.424;-1.948;2022-12-22T00:03:44;16.88;;;6.88;;
43363;SDS011;40636;52.424;-1.948;2022-12-22T00:06:30;11.20;;;5.47;;
43363;SDS011;40636;52.424;-1.948;2022-12-22T00:09:15;21.25;;;7.30;;
43363;SDS011;40636;52.424;-1.948;2022-12-22T00:12:00;14.75;;;7.32;;
43363;SDS011;40636;52.424;-1.948;2022-12-22T00:14:45;17.55;;;6.53;;
43363;SDS011;40636;52.424;-1.948;2022-12-22T00:17:32;13.70;;;5.88;;
43363;SDS011;40636;52.424;-1.948;2022-12-22T00:20:19;18.70;;;6.53;;
43363;SDS011;40636;52.424;-1.948;2022-12-22T00:23:04;10.80;;;5.43;;
43363;SDS011;40636;52.424;-1.948;2022-12-22T00:25:49;13.63;;;6.35;;
43363;SDS011;40636;52.424;-1.948;2022-12-22T00:28:35;14.07;;;6.55;;
43363;SDS011;40636;52.424;-1.948;2022-12-22T00:31:20;13.68;;;7.60;;
43363;SDS011;40636;52.424;-1.948;2022-12-22T00:34:10;13.35;;;7.60;;
43363;SDS011;40636;52.424;-1.948;2022-12-22T00:36:58;13.40;;;6.47;;
43363;SDS011;40636;52.424;-1.948;2022-12-22T00:39:43;17.30;;;7.55;;
43363;SDS011;40636;52.424;-1.948;2022-12-22T00:42:29;12.15;;;6.22;;
43363;SDS011;40636;52.424;-1.948;2022-12-22T00:45:15;16.40;;;7.10;;
43363;SDS011;40636;52.424;-1.948;2022-12-22T00:48:00;14.38;;;7.78;;
43363;SDS011;40636;52.424;-1.948;2022-12-22T00:50:46;13.05;;;7.15;;
43363;SDS011;40636;52.424;-1.948;2022-12-22T00:53:31;15.50;;;7.32;;
43363;SDS011;40636;52.424;-1.948;2022-12-22T00:56:16;17.23;;;7.85;;
43363;SDS011;40636;52.424;-1.948;2022-12-22T00:59:02;19.13;;;7.13;;
43363;SDS011;40636;52.424;-1.948;2022-12-22T01:01:47;20.17;;;7.25;;
43363;SDS011;40636;52.424;-1.948;2022-12-22T01:04:32;16.50;;;7.18;;
43363;SDS011;40636;52.424;-1.948;2022-12-22T01:07:18;15.77;;;6.53;;
43363;SDS011;40636;52.424;-1.948;2022-12-22T01:10:11;13.23;;;6.97;;
43363;SDS011;40636;52.424;-1.948;2022-12-22T01:12:57;13.43;;;7.03;;
43363;SDS011;40636;52.424;-1.948;2022-12-22T01:15:42;11.93;;;6.68;;
43363;SDS011;40636;52.424;-1.948;2022-12-22T01:18:28;13.15;;;6.80;;
43363;SDS011;40636;52.424;-1.948;2022-12-22T01:21:13;14.85;;;7.65;;
43363;SDS011;40636;52.424;-1.948;2022-12-22T01:24:00;15.85;;;7.13;;
43363;SDS011;40636;52.424;-1.948;2022-12-22T01:26:45;13.00;;;7.15;;
43363;SDS011;40636;52.424;-1.948;2022-12-22T01:29:30;14.57;;;7.43;;
43363;SDS011;40636;52.424;-1.948;2022-12-22T01:32:15;16.67;;;7.82;;
43363;SDS011;40636;52.424;-1.948;2022-12-22T01:35:00;17.17;;;8.40;;
43363;SDS011;40636;52.424;-1.948;2022-12-22T01:37:45;24.75;;;6.85;;
43363;SDS011;40636;52.424;-1.948;2022-12-22T01:40:31;14.40;;;6.30;;
43363;SDS011;40636;52.424;-1.948;2022-12-22T01:43:20;17.52;;;6.63;;
43363;SDS011;40636;52.424;-1.948;2022-12-22T01:49:11;19.35;;;6.07;;
43363;SDS011;40636;52.424;-1.948;2022-12-22T01:52:00;13.27;;;5.05;;
43363;SDS011;40636;52.424;-1.948;2022-12-22T01:54:47;11.35;;;4.68;;
43363;SDS011;40636;52.424;-1.948;2022-12-22T01:57:33;7.50;;;4.00;;
43363;SDS011;40636;52.424;-1.948;2022-12-22T02:00:20;9.15;;;4.47;;
43363;SDS011;40636;52.424;-1.948;2022-12-22T02:03:15;7.65;;;4.10;;
43363;SDS011;40636;52.424;-1.948;2022-12-22T02:06:10;9.25;;;3.78;;
43363;SDS011;40636;52.424;-1.948;2022-12-22T02:09:03;6.85;;;3.90;;
43363;SDS011;40636;52.424;-1.948;2022-12-22T02:12:03;7.93;;;4.07;;
43363;SDS011;40636;52.424;-1.948;2022-12-22T02:15:06;8.02;;;4.15;;
43363;SDS011;40636;52.424;-1.948;2022-12-22T02:27:46;7.25;;;4.00;;
43363;SDS011;40636;52.424;-1.948;2022-12-22T02:30:34;8.52;;;4.82;;
43363;SDS011;40636;52.424;-1.948;2022-12-22T02:33:21;9.60;;;4.18;;
43363;SDS011;40636;52.424;-1.948;2022-12-22T02:36:26;8.27;;;3.90;;
43363;SDS011;40636;52.424;-1.948;2022-12-22T02:39:28;5.90;;;3.45;;
43363;SDS011;40636;52.424;-1.948;2022-12-22T02:45:16;7.45;;;2.95;;
43363;SDS011;40636;52.424;-1.948;2022-12-22T02:48:16;9.55;;;3.90;;
43363;SDS011;40636;52.424;-1.948;2022-12-22T02:51:08;7.57;;;3.53;;
43363;SDS011;40636;52.424;-1.948;2022-12-22T02:54:00;4.72;;;2.47;;
43363;SDS011;40636;52.424;-1.948;2022-12-22T02:56:47;6.20;;;3.58;;
43363;SDS011;40636;52.424;-1.948;2022-12-22T02:59:32;9.23;;;3.80;;
43363;SDS011;40636;52.424;-1.948;2022-12-22T03:02:17;6.15;;;2.60;;
43363;SDS011;40636;52.424;-1.948;2022-12-22T03:05:03;7.05;;;2.70;;
43363;SDS011;40636;52.424;-1.948;2022-12-22T03:07:48;5.22;;;3.10;;
43363;SDS011;40636;52.424;-1.948;2022-12-22T03:10:34;8.45;;;3.63;;
43363;SDS011;40636;52.424;-1.948;2022-12-22T03:13:19;4.20;;;2.83;;
43363;SDS011;40636;52.424;-1.948;2022-12-22T03:16:04;6.95;;;3.60;;
43363;SDS011;40636;52.424;-1.948;2022-12-22T03:18:49;5.43;;;2.65;;
43363;SDS011;40636;52.424;-1.948;2022-12-22T03:21:34;4.30;;;2.58;;
43363;SDS011;40636;52.424;-1.948;2022-12-22T03:24:20;5.28;;;2.80;;
43363;SDS011;40636;52.424;-1.948;2022-12-22T03:27:05;5.35;;;2.67;;
43363;SDS011;40636;52.424;-1.948;2022-12-22T03:29:32;7.10;;;2.92;;
43363;SDS011;40636;52.424;-1.948;2022-12-22T03:31:58;5.07;;;2.80;;
43363;SDS011;40636;52.424;-1.948;2022-12-22T03:34:25;7.03;;;3.15;;
43363;SDS011;40636;52.424;-1.948;2022-12-22T03:36:52;4.47;;;2.92;;
43363;SDS011;40636;52.424;-1.948;2022-12-22T03:39:19;5.07;;;3.60;;
43363;SDS011;40636;52.424;-1.948;2022-12-22T03:41:46;5.45;;;3.03;;
43363;SDS011;40636;52.424;-1.948;2022-12-22T03:44:31;4.97;;;2.83;;
43363;SDS011;40636;52.424;-1.948;2022-12-22T03:47:16;7.05;;;2.65;;
43363;SDS011;40636;52.424;-1.948;2022-12-22T03:49:43;9.90;;;3.78;;
43363;SDS011;40636;52.424;-1.948;2022-12-22T03:52:10;7.25;;;4.55;;
43363;SDS011;40636;52.424;-1.948;2022-12-22T03:54:36;9.63;;;3.95;;
43363;SDS011;40636;52.424;-1.948;2022-12-22T03:57:03;12.63;;;4.97;;
43363;SDS011;40636;52.424;-1.948;2022-12-22T03:59:30;6.90;;;4.15;;
43363;SDS011;40636;52.424;-1.948;2022-12-22T04:01:56;6.53;;;3.63;;
43363;SDS011;40636;52.424;-1.948;2022-12-22T04:04:24;14.18;;;4.22;;
43363;SDS011;40636;52.424;-1.948;2022-12-22T04:06:51;8.70;;;4.00;;
43363;SDS011;40636;52.424;-1.948;2022-12-22T04:09:19;7.18;;;4.55;;
43363;SDS011;40636;52.424;-1.948;2022-12-22T04:11:47;6.43;;;3.83;;
43363;SDS011;40636;52.424;-1.948;2022-12-22T04:14:32;7.88;;;3.85;;
43363;SDS011;40636;52.424;-1.948;2022-12-22T04:17:03;10.38;;;5.15;;
43363;SDS011;40636;52.424;-1.948;2022-12-22T04:19:31;8.75;;;4.55;;
43363;SDS011;40636;52.424;-1.948;2022-12-22T04:21:58;9.07;;;4.35;;
43363;SDS011;40636;52.424;-1.948;2022-12-22T04:24:25;13.93;;;5.82;;
43363;SDS011;40636;52.424;-1.948;2022-12-22T04:26:51;9.95;;;5.70;;
43363;SDS011;40636;52.424;-1.948;2022-12-22T04:29:18;12.77;;;5.80;;
43363;SDS011;40636;52.424;-1.948;2022-12-22T04:31:45;7.97;;;4.30;;
43363;SDS011;40636;52.424;-1.948;2022-12-22T04:34:11;16.98;;;6.50;;
43363;SDS011;40636;52.424;-1.948;2022-12-22T04:36:38;15.35;;;6.82;;
43363;SDS011;40636;52.424;-1.948;2022-12-22T04:39:05;15.23;;;7.18;;
43363;SDS011;40636;52.424;-1.948;2022-12-22T04:41:31;17.17;;;8.10;;
43363;SDS011;40636;52.424;-1.948;2022-12-22T04:43:58;16.50;;;7.53;;
43363;SDS011;40636;52.424;-1.948;2022-12-22T04:46:25;17.33;;;7.90;;
43363;SDS011;40636;52.424;-1.948;2022-12-22T04:48:51;16.77;;;6.95;;
43363;SDS011;40636;52.424;-1.948;2022-12-22T04:51:25;14.60;;;5.97;;
43363;SDS011;40636;52.424;-1.948;2022-12-22T04:53:52;16.15;;;7.43;;
43363;SDS011;40636;52.424;-1.948;2022-12-22T04:56:19;21.58;;;8.63;;
43363;SDS011;40636;52.424;-1.948;2022-12-22T04:58:46;25.17;;;7.20;;
43363;SDS011;40636;52.424;-1.948;2022-12-22T05:01:13;13.95;;;6.38;;
43363;SDS011;40636;52.424;-1.948;2022-12-22T05:03:41;16.10;;;6.63;;
43363;SDS011;40636;52.424;-1.948;2022-12-22T05:06:08;21.58;;;7.88;;
43363;SDS011;40636;52.424;-1.948;2022-12-22T05:08:36;24.40;;;6.18;;
43363;SDS011;40636;52.424;-1.948;2022-12-22T05:11:03;13.38;;;6.10;;
43363;SDS011;40636;52.424;-1.948;2022-12-22T05:13:30;14.13;;;6.25;;
43363;SDS011;40636;52.424;-1.948;2022-12-22T05:16:10;22.25;;;6.72;;
43363;SDS011;40636;52.424;-1.948;2022-12-22T05:18:39;10.10;;;4.75;;
43363;SDS011;40636;52.424;-1.948;2022-12-22T05:21:08;9.02;;;5.28;;
43363;SDS011;40636;52.424;-1.948;2022-12-22T05:23:37;10.45;;;4.70;;
43363;SDS011;40636;52.424;-1.948;2022-12-22T05:26:05;11.10;;;5.38;;
43363;SDS011;40636;52.424;-1.948;2022-12-22T05:28:32;22.55;;;4.93;;
43363;SDS011;40636;52.424;-1.948;2022-12-22T05:31:03;15.05;;;6.05;;
43363;SDS011;40636;52.424;-1.948;2022-12-22T05:33:31;17.80;;;4.53;;
43363;SDS011;40636;52.424;-1.948;2022-12-22T05:35:58;13.55;;;5.75;;
43363;SDS011;40636;52.424;-1.948;2022-12-22T05:38:24;7.68;;;5.40;;
43363;SDS011;40636;52.424;-1.948;2022-12-22T05:40:51;12.43;;;4.95;;
43363;SDS011;40636;52.424;-1.948;2022-12-22T05:43:25;12.40;;;4.80;;
43363;SDS011;40636;52.424;-1.948;2022-12-22T05:45:51;14.43;;;4.88;;
43363;SDS011;40636;52.424;-1.948;2022-12-22T05:48:18;7.65;;;4.90;;
43363;SDS011;40636;52.424;-1.948;2022-12-22T05:50:54;10.20;;;5.20;;
43363;SDS011;40636;52.424;-1.948;2022-12-22T05:53:21;12.38;;;5.45;;
43363;SDS011;40636;52.424;-1.948;2022-12-22T05:55:48;9.77;;;5.60;;
43363;SDS011;40636;52.424;-1.948;2022-12-22T05:58:14;13.30;;;5.28;;
43363;SDS011;40636;52.424;-1.948;2022-12-22T06:00:41;20.77;;;5.82;;
43363;SDS011;40636;52.424;-1.948;2022-12-22T06:03:07;14.50;;;6.10;;
43363;SDS011;40636;52.424;-1.948;2022-12-22T06:05:34;13.82;;;5.18;;
43363;SDS011;40636;52.424;-1.948;2022-12-22T06:08:01;18.63;;;5.75;;
43363;SDS011;40636;52.424;-1.948;2022-12-22T06:10:27;15.15;;;5.43;;
43363;SDS011;40636;52.424;-1.948;2022-12-22T06:12:54;12.60;;;6.25;;
43363;SDS011;40636;52.424;-1.948;2022-12-22T06:15:21;18.00;;;6.40;;
43363;SDS011;40636;52.424;-1.948;2022-12-22T06:17:47;12.77;;;6.05;;
43363;SDS011;40636;52.424;-1.948;2022-12-22T06:20:14;12.15;;;6.60;;
43363;SDS011;40636;52.424;-1.948;2022-12-22T06:22:41;11.30;;;5.68;;
43363;SDS011;40636;52.424;-1.948;2022-12-22T06:25:07;13.70;;;5.85;;
43363;SDS011;40636;52.424;-1.948;2022-12-22T06:27:43;20.10;;;7.30;;
43363;SDS011;40636;52.424;-1.948;2022-12-22T06:30:10;16.73;;;6.35;;
43363;SDS011;40636;52.424;-1.948;2022-12-22T06:32:37;15.38;;;7.35;;
43363;SDS011;40636;52.424;-1.948;2022-12-22T06:35:05;14.55;;;7.70;;
43363;SDS011;40636;52.424;-1.948;2022-12-22T06:37:32;16.08;;;7.90;;
43363;SDS011;40636;52.424;-1.948;2022-12-22T06:39:59;16.92;;;7.38;;
43363;SDS011;40636;52.424;-1.948;2022-12-22T06:42:26;19.92;;;7.72;;
43363;SDS011;40636;52.424;-1.948;2022-12-22T06:45:11;13.13;;;7.28;;
43363;SDS011;40636;52.424;-1.948;2022-12-22T06:47:38;15.57;;;7.65;;
43363;SDS011;40636;52.424;-1.948;2022-12-22T06:50:05;14.35;;;7.30;;
43363;SDS011;40636;52.424;-1.948;2022-12-22T06:52:32;14.05;;;7.22;;
43363;SDS011;40636;52.424;-1.948;2022-12-22T06:54:58;12.15;;;6.85;;
43363;SDS011;40636;52.424;-1.948;2022-12-22T06:57:27;11.30;;;6.35;;
43363;SDS011;40636;52.424;-1.948;2022-12-22T06:59:54;15.65;;;6.60;;
43363;SDS011;40636;52.424;-1.948;2022-12-22T07:02:23;22.45;;;7.45;;
43363;SDS011;40636;52.424;-1.948;2022-12-22T07:04:50;15.02;;;6.22;;
43363;SDS011;40636;52.424;-1.948;2022-12-22T07:07:17;15.63;;;7.07;;
43363;SDS011;40636;52.424;-1.948;2022-12-22T07:09:43;13.05;;;6.93;;
43363;SDS011;40636;52.424;-1.948;2022-12-22T07:12:11;17.50;;;7.80;;
43363;SDS011;40636;52.424;-1.948;2022-12-22T07:14:38;10.60;;;6.70;;
43363;SDS011;40636;52.424;-1.948;2022-12-22T07:17:05;14.48;;;7.70;;
43363;SDS011;40636;52.424;-1.948;2022-12-22T07:19:32;18.15;;;7.38;;
43363;SDS011;40636;52.424;-1.948;2022-12-22T07:21:58;14.07;;;6.97;;
43363;SDS011;40636;52.424;-1.948;2022-12-22T07:24:25;12.35;;;6.30;;
43363;SDS011;40636;52.424;-1.948;2022-12-22T07:26:52;14.25;;;6.60;;
43363;SDS011;40636;52.424;-1.948;2022-12-22T07:29:18;16.05;;;7.00;;
43363;SDS011;40636;52.424;-1.948;2022-12-22T07:31:45;15.32;;;6.45;;
43363;SDS011;40636;52.424;-1.948;2022-12-22T07:34:12;16.55;;;7.70;;
43363;SDS011;40636;52.424;-1.948;2022-12-22T07:36:39;15.98;;;7.30;;
43363;SDS011;40636;52.424;-1.948;2022-12-22T07:39:06;13.02;;;7.10;;
43363;SDS011;40636;52.424;-1.948;2022-12-22T07:41:33;11.30;;;5.80;;
43363;SDS011;40636;52.424;-1.948;2022-12-22T07:44:18;11.88;;;6.35;;
43363;SDS011;40636;52.424;-1.948;2022-12-22T07:46:45;12.07;;;6.75;;
43363;SDS011;40636;52.424;-1.948;2022-12-22T07:49:11;10.50;;;6.28;;
43363;SDS011;40636;52.424;-1.948;2022-12-22T07:51:57;11.98;;;5.75;;
43363;SDS011;40636;52.424;-1.948;2022-12-22T07:54:24;8.20;;;4.90;;
43363;SDS011;40636;52.424;-1.948;2022-12-22T07:56:52;9.93;;;4.60;;
43363;SDS011;40636;52.424;-1.948;2022-12-22T07:59:18;13.02;;;5.65;;
43363;SDS011;40636;52.424;-1.948;2022-12-22T08:01:45;8.35;;;3.90;;
43363;SDS011;40636;52.424;-1.948;2022-12-22T08:04:12;25.42;;;6.28;;
43363;SDS011;40636;52.424;-1.948;2022-12-22T08:06:40;5.38;;;4.35;;
43363;SDS011;40636;52.424;-1.948;2022-12-22T08:09:07;10.95;;;5.55;;
43363;SDS011;40636;52.424;-1.948;2022-12-22T08:11:34;8.75;;;4.80;;
43363;SDS011;40636;52.424;-1.948;2022-12-22T08:14:01;8.05;;;4.55;;
43363;SDS011;40636;52.424;-1.948;2022-12-22T08:16:28;8.30;;;4.32;;
43363;SDS011;40636;52.424;-1.948;2022-12-22T08:18:55;8.05;;;3.42;;
43363;SDS011;40636;52.424;-1.948;2022-12-22T08:21:22;10.25;;;4.15;;
43363;SDS011;40636;52.424;-1.948;2022-12-22T08:23:49;5.55;;;3.97;;
43363;SDS011;40636;52.424;-1.948;2022-12-22T08:28:50;7.45;;;4.00;;
43363;SDS011;40636;52.424;-1.948;2022-12-22T08:31:24;4.90;;;3.83;;
43363;SDS011;40636;52.424;-1.948;2022-12-22T08:33:54;8.93;;;3.38;;
43363;SDS011;40636;52.424;-1.948;2022-12-22T08:36:24;7.03;;;3.50;;
43363;SDS011;40636;52.424;-1.948;2022-12-22T08:38:51;7.53;;;3.47;;
43363;SDS011;40636;52.424;-1.948;2022-12-22T08:41:18;4.97;;;3.10;;
43363;SDS011;40636;52.424;-1.948;2022-12-22T08:44:05;7.63;;;4.07;;
43363;SDS011;40636;52.424;-1.948;2022-12-22T08:46:31;9.95;;;4.05;;
43363;SDS011;40636;52.424;-1.948;2022-12-22T08:48:58;5.75;;;2.88;;
43363;SDS011;40636;52.424;-1.948;2022-12-22T08:51:25;5.93;;;2.60;;
43363;SDS011;40636;52.424;-1.948;2022-12-22T08:53:51;8.60;;;2.90;;
43363;SDS011;40636;52.424;-1.948;2022-12-22T08:56:34;8.93;;;3.70;;
43363;SDS011;40636;52.424;-1.948;2022-12-22T08:59:01;5.65;;;3.47;;
43363;SDS011;40636;52.424;-1.948;2022-12-22T09:01:31;6.70;;;2.85;;
43363;SDS011;40636;52.424;-1.948;2022-12-22T09:04:01;7.47;;;2.72;;
43363;SDS011;40636;52.424;-1.948;2022-12-22T09:06:28;7.13;;;3.67;;
43363;SDS011;40636;52.424;-1.948;2022-12-22T09:09:06;9.60;;;3.80;;
43363;SDS011;40636;52.424;-1.948;2022-12-22T09:11:34;7.97;;;3.45;;
43363;SDS011;40636;52.424;-1.948;2022-12-22T09:14:01;4.32;;;2.58;;
43363;SDS011;40636;52.424;-1.948;2022-12-22T09:16:29;8.25;;;2.72;;
43363;SDS011;40636;52.424;-1.948;2022-12-22T09:18:57;6.13;;;3.58;;
43363;SDS011;40636;52.424;-1.948;2022-12-22T09:21:24;7.63;;;2.92;;
43363;SDS011;40636;52.424;-1.948;2022-12-22T09:23:51;5.80;;;3.08;;
43363;SDS011;40636;52.424;-1.948;2022-12-22T09:26:20;9.73;;;3.35;;
43363;SDS011;40636;52.424;-1.948;2022-12-22T09:28:48;8.05;;;3.55;;
43363;SDS011;40636;52.424;-1.948;2022-12-22T09:31:16;3.17;;;2.60;;
43363;SDS011;40636;52.424;-1.948;2022-12-22T09:33:45;5.25;;;2.80;;
43363;SDS011;40636;52.424;-1.948;2022-12-22T09:36:13;4.15;;;2.53;;
43363;SDS011;40636;52.424;-1.948;2022-12-22T09:38:41;6.20;;;2.80;;
43363;SDS011;40636;52.424;-1.948;2022-12-22T09:41:09;4.18;;;3.00;;
43363;SDS011;40636;52.424;-1.948;2022-12-22T09:43:40;5.05;;;2.70;;
43363;SDS011;40636;52.424;-1.948;2022-12-22T09:46:20;6.40;;;2.72;;
43363;SDS011;40636;52.424;-1.948;2022-12-22T09:48:50;5.13;;;3.13;;
43363;SDS011;40636;52.424;-1.948;2022-12-22T09:51:18;6.60;;;4.60;;
43363;SDS011;40636;52.424;-1.948;2022-12-22T09:53:58;5.07;;;3.03;;
43363;SDS011;40636;52.424;-1.948;2022-12-22T09:56:27;7.20;;;4.38;;
43363;SDS011;40636;52.424;-1.948;2022-12-22T09:58:54;6.28;;;3.55;;
43363;SDS011;40636;52.424;-1.948;2022-12-22T10:04:17;7.40;;;4.03;;
43363;SDS011;40636;52.424;-1.948;2022-12-22T10:07:01;8.80;;;3.78;;
43363;SDS011;40636;52.424;-1.948;2022-12-22T10:09:42;6.95;;;4.00;;
43363;SDS011;40636;52.424;-1.948;2022-12-22T10:12:17;10.48;;;4.53;;
43363;SDS011;40636;52.424;-1.948;2022-12-22T10:14:47;9.77;;;5.20;;
43363;SDS011;40636;52.424;-1.948;2022-12-22T10:17:29;8.48;;;4.35;;
43363;SDS011;40636;52.424;-1.948;2022-12-22T10:22:59;13.05;;;5.53;;
43363;SDS011;40636;52.424;-1.948;2022-12-22T10:28:19;7.38;;;4.75;;
43363;SDS011;40636;52.424;-1.948;2022-12-22T10:31:09;9.32;;;4.55;;
43363;SDS011;40636;52.424;-1.948;2022-12-22T10:33:46;6.35;;;4.47;;
43363;SDS011;40636;52.424;-1.948;2022-12-22T10:36:18;9.20;;;4.78;;
43363;SDS011;40636;52.424;-1.948;2022-12-22T10:38:52;9.13;;;4.15;;
43363;SDS011;40636;52.424;-1.948;2022-12-22T10:41:23;9.93;;;4.80;;
43363;SDS011;40636;52.424;-1.948;2022-12-22T10:44:03;10.18;;;4.78;;
43363;SDS011;40636;52.424;-1.948;2022-12-22T10:49:35;9.52;;;4.97;;
43363;SDS011;40636;52.424;-1.948;2022-12-22T10:57:46;10.70;;;4.82;;
43363;SDS011;40636;52.424;-1.948;2022-12-22T11:00:27;6.55;;;3.60;;
43363;SDS011;40636;52.424;-1.948;2022-12-22T11:02:57;9.43;;;4.43;;
43363;SDS011;40636;52.424;-1.948;2022-12-22T11:05:26;8.27;;;4.40;;
43363;SDS011;40636;52.424;-1.948;2022-12-22T11:07:53;6.97;;;4.22;;
43363;SDS011;40636;52.424;-1.948;2022-12-22T11:30:36;8.38;;;4.60;;
43363;SDS011;40636;52.424;-1.948;2022-12-22T11:33:33;9.15;;;4.85;;
43363;SDS011;40636;52.424;-1.948;2022-12-22T11:53:34;9.88;;;5.88;;
43363;SDS011;40636;52.424;-1.948;2022-12-22T12:04:47;11.13;;;5.03;;
43363;SDS011;40636;52.424;-1.948;2022-12-22T12:07:23;8.70;;;5.45;;
43363;SDS011;40636;52.424;-1.948;2022-12-22T12:18:39;13.02;;;4.55;;
43363;SDS011;40636;52.424;-1.948;2022-12-22T12:21:20;8.00;;;5.00;;
43363;SDS011;40636;52.424;-1.948;2022-12-22T12:26:26;9.90;;;4.43;;
43363;SDS011;40636;52.424;-1.948;2022-12-22T12:29:14;9.70;;;5.53;;
43363;SDS011;40636;52.424;-1.948;2022-12-22T12:32:09;6.38;;;4.15;;
43363;SDS011;40636;52.424;-1.948;2022-12-22T12:34:35;9.50;;;4.47;;
43363;SDS011;40636;52.424;-1.948;2022-12-22T12:42:41;7.75;;;3.97;;
43363;SDS011;40636;52.424;-1.948;2022-12-22T12:50:52;8.18;;;4.20;;
43363;SDS011;40636;52.424;-1.948;2022-12-22T12:53:21;6.53;;;3.88;;
43363;SDS011;40636;52.424;-1.948;2022-12-22T12:55:55;8.38;;;4.85;;
43363;SDS011;40636;52.424;-1.948;2022-12-22T13:01:12;8.43;;;4.50;;
43363;SDS011;40636;52.424;-1.948;2022-12-22T13:04:07;14.27;;;5.25;;
43363;SDS011;40636;52.424;-1.948;2022-12-22T13:15:24;13.48;;;6.10;;
43363;SDS011;40636;52.424;-1.948;2022-12-22T13:17:53;10.10;;;4.93;;
43363;SDS011;40636;52.424;-1.948;2022-12-22T13:20:29;10.68;;;6.13;;
43363;SDS011;40636;52.424;-1.948;2022-12-22T13:22:59;11.50;;;6.78;;
43363;SDS011;40636;52.424;-1.948;2022-12-22T13:25:38;13.65;;;6.00;;
43363;SDS011;40636;52.424;-1.948;2022-12-22T13:28:10;13.15;;;6.53;;
43363;SDS011;40636;52.424;-1.948;2022-12-22T13:30:47;11.73;;;5.90;;
43363;SDS011;40636;52.424;-1.948;2022-12-22T13:33:18;11.98;;;5.68;;
43363;SDS011;40636;52.424;-1.948;2022-12-22T13:35:49;14.20;;;6.40;;
43363;SDS011;40636;52.424;-1.948;2022-12-22T13:40:59;14.63;;;7.53;;
43363;SDS011;40636;52.424;-1.948;2022-12-22T13:43:29;17.20;;;6.85;;
43363;SDS011;40636;52.424;-1.948;2022-12-22T13:46:00;14.57;;;7.15;;
43363;SDS011;40636;52.424;-1.948;2022-12-22T13:48:38;15.38;;;6.70;;
43363;SDS011;40636;52.424;-1.948;2022-12-22T13:51:17;15.40;;;7.57;;
43363;SDS011;40636;52.424;-1.948;2022-12-22T13:56:53;14.80;;;6.80;;
43363;SDS011;40636;52.424;-1.948;2022-12-22T13:59:27;12.32;;;6.05;;
43363;SDS011;40636;52.424;-1.948;2022-12-22T14:01:57;14.95;;;7.18;;
43363;SDS011;40636;52.424;-1.948;2022-12-22T14:04:26;12.60;;;6.95;;
43363;SDS011;40636;52.424;-1.948;2022-12-22T14:06:54;12.88;;;6.78;;
43363;SDS011;40636;52.424;-1.948;2022-12-22T14:09:22;9.85;;;6.03;;
43363;SDS011;40636;52.424;-1.948;2022-12-22T14:11:54;14.93;;;5.32;;
43363;SDS011;40636;52.424;-1.948;2022-12-22T14:14:24;9.70;;;5.70;;
43363;SDS011;40636;52.424;-1.948;2022-12-22T14:16:54;9.90;;;5.90;;
43363;SDS011;40636;52.424;-1.948;2022-12-22T14:19:24;8.75;;;5.10;;
43363;SDS011;40636;52.424;-1.948;2022-12-22T14:21:57;8.43;;;4.80;;
43363;SDS011;40636;52.424;-1.948;2022-12-22T14:24:30;8.77;;;5.50;;
43363;SDS011;40636;52.424;-1.948;2022-12-22T14:27:04;10.13;;;4.80;;
43363;SDS011;40636;52.424;-1.948;2022-12-22T14:29:31;7.72;;;4.45;;
43363;SDS011;40636;52.424;-1.948;2022-12-22T14:31:59;10.82;;;5.82;;
43363;SDS011;40636;52.424;-1.948;2022-12-22T14:34:29;9.93;;;5.13;;
43363;SDS011;40636;52.424;-1.948;2022-12-22T14:36:59;10.57;;;5.32;;
43363;SDS011;40636;52.424;-1.948;2022-12-22T14:39:28;9.35;;;5.63;;
43363;SDS011;40636;52.424;-1.948;2022-12-22T14:41:57;10.02;;;5.55;;
43363;SDS011;40636;52.424;-1.948;2022-12-22T14:44:27;9.13;;;5.20;;
43363;SDS011;40636;52.424;-1.948;2022-12-22T14:47:03;9.95;;;5.55;;
43363;SDS011;40636;52.424;-1.948;2022-12-22T14:49:31;8.13;;;5.35;;
43363;SDS011;40636;52.424;-1.948;2022-12-22T14:52:04;10.45;;;6.07;;
43363;SDS011;40636;52.424;-1.948;2022-12-22T14:54:33;10.63;;;5.85;;
43363;SDS011;40636;52.424;-1.948;2022-12-22T14:57:01;9.32;;;5.72;;
43363;SDS011;40636;52.424;-1.948;2022-12-22T14:59:40;9.98;;;5.13;;
43363;SDS011;40636;52.424;-1.948;2022-12-22T15:02:20;9.50;;;5.38;;
43363;SDS011;40636;52.424;-1.948;2022-12-22T15:05:07;8.18;;;4.90;;
43363;SDS011;40636;52.424;-1.948;2022-12-22T15:07:50;12.02;;;5.70;;
43363;SDS011;40636;52.424;-1.948;2022-12-22T15:10:50;12.30;;;6.35;;
43363;SDS011;40636;52.424;-1.948;2022-12-22T15:13:25;11.32;;;6.53;;
43363;SDS011;40636;52.424;-1.948;2022-12-22T15:15:52;13.03;;;6.83;;
43363;SDS011;40636;52.424;-1.948;2022-12-22T15:18:21;11.60;;;5.80;;
43363;SDS011;40636;52.424;-1.948;2022-12-22T15:20:51;10.55;;;5.75;;
43363;SDS011;40636;52.424;-1.948;2022-12-22T15:23:18;8.05;;;5.00;;
43363;SDS011;40636;52.424;-1.948;2022-12-22T15:25:45;8.48;;;5.03;;
43363;SDS011;40636;52.424;-1.948;2022-12-22T15:28:12;9.57;;;5.00;;
43363;SDS011;40636;52.424;-1.948;2022-12-22T15:30:39;6.97;;;4.72;;
43363;SDS011;40636;52.424;-1.948;2022-12-22T15:33:12;8.73;;;4.97;;
43363;SDS011;40636;52.424;-1.948;2022-12-22T15:35:41;10.70;;;4.57;;
43363;SDS011;40636;52.424;-1.948;2022-12-22T15:38:11;8.65;;;4.82;;
43363;SDS011;40636;52.424;-1.948;2022-12-22T15:40:39;8.73;;;4.53;;
43363;SDS011;40636;52.424;-1.948;2022-12-22T15:43:06;7.47;;;4.65;;
43363;SDS011;40636;52.424;-1.948;2022-12-22T15:45:52;9.70;;;4.55;;
43363;SDS011;40636;52.424;-1.948;2022-12-22T15:48:24;8.73;;;5.07;;
43363;SDS011;40636;52.424;-1.948;2022-12-22T15:51:04;8.27;;;4.45;;
43363;SDS011;40636;52.424;-1.948;2022-12-22T15:53:33;6.38;;;4.00;;
43363;SDS011;40636;52.424;-1.948;2022-12-22T15:56:02;7.68;;;4.47;;
43363;SDS011;40636;52.424;-1.948;2022-12-22T15:58:33;12.10;;;5.13;;
43363;SDS011;40636;52.424;-1.948;2022-12-22T16:01:01;11.75;;;5.25;;
43363;SDS011;40636;52.424;-1.948;2022-12-22T16:03:28;11.40;;;5.38;;
43363;SDS011;40636;52.424;-1.948;2022-12-22T16:05:55;7.10;;;4.40;;
43363;SDS011;40636;52.424;-1.948;2022-12-22T16:08:26;8.18;;;4.85;;
43363;SDS011;40636;52.424;-1.948;2022-12-22T16:10:56;9.65;;;4.88;;
43363;SDS011;40636;52.424;-1.948;2022-12-22T16:13:26;9.57;;;5.50;;
43363;SDS011;40636;52.424;-1.948;2022-12-22T16:15:55;9.02;;;5.25;;
43363;SDS011;40636;52.424;-1.948;2022-12-22T16:18:22;9.88;;;5.53;;
43363;SDS011;40636;52.424;-1.948;2022-12-22T16:20:49;10.05;;;5.38;;
43363;SDS011;40636;52.424;-1.948;2022-12-22T16:23:18;10.07;;;6.95;;
43363;SDS011;40636;52.424;-1.948;2022-12-22T16:25:48;10.52;;;6.10;;
43363;SDS011;40636;52.424;-1.948;2022-12-22T16:28:24;10.73;;;6.47;;
43363;SDS011;40636;52.424;-1.948;2022-12-22T16:30:50;11.98;;;6.15;;
43363;SDS011;40636;52.424;-1.948;2022-12-22T16:33:18;11.38;;;7.00;;
43363;SDS011;40636;52.424;-1.948;2022-12-22T16:35:45;11.80;;;6.07;;
43363;SDS011;40636;52.424;-1.948;2022-12-22T16:38:12;12.75;;;6.95;;
43363;SDS011;40636;52.424;-1.948;2022-12-22T16:40:45;15.23;;;8.88;;
43363;SDS011;40636;52.424;-1.948;2022-12-22T16:43:33;17.85;;;7.80;;
43363;SDS011;40636;52.424;-1.948;2022-12-22T16:46:18;16.38;;;7.60;;
43363;SDS011;40636;52.424;-1.948;2022-12-22T16:51:15;12.90;;;7.45;;
43363;SDS011;40636;52.424;-1.948;2022-12-22T16:53:44;13.35;;;6.88;;
43363;SDS011;40636;52.424;-1.948;2022-12-22T16:56:19;14.57;;;7.18;;
43363;SDS011;40636;52.424;-1.948;2022-12-22T16:58:47;13.32;;;7.32;;
43363;SDS011;40636;52.424;-1.948;2022-12-22T17:01:23;16.08;;;7.45;;
43363;SDS011;40636;52.424;-1.948;2022-12-22T17:03:59;13.93;;;6.80;;
43363;SDS011;40636;52.424;-1.948;2022-12-22T17:06:30;13.52;;;7.63;;
43363;SDS011;40636;52.424;-1.948;2022-12-22T17:08:57;15.45;;;6.60;;
43363;SDS011;40636;52.424;-1.948;2022-12-22T17:11:24;13.57;;;7.38;;